sensor_id;sensor_type;location;lat;lon;timestamp;P1;durP1;ratioP1;P2;durP2;ratioP2
75061;SDS011;63641;46.526;24.612;2023-09-19T00:00:21;4.47;;;4.05;;
75061;SDS011;63641;46.526;24.612;2023-09-19T00:02:55;4.80;;;4.05;;
75061;SDS011;63641;46.526;24.612;2023-09-19T00:05:26;4.68;;;4.25;;
75061;SDS011;63641;46.526;24.612;2023-09-19T00:07:55;6.05;;;4.40;;
75061;SDS011;63641;46.526;24.612;2023-09-19T00:10:25;5.80;;;4.00;;
75061;SDS011;63641;46.526;24.612;2023-09-19T00:12:53;5.03;;;4.45;;
75061;SDS011;63641;46.526;24.612;2023-09-19T00:15:25;4.78;;;4.38;;
75061;SDS011;63641;46.526;24.612;2023-09-19T00:17:56;4.32;;;3.92;;
75061;SDS011;63641;46.526;24.612;2023-09-19T00:20:23;5.50;;;4.60;;
75061;SDS011;63641;46.526;24.612;2023-09-19T00:22:50;5.03;;;4.63;;
75061;SDS011;63641;46.526;24.612;2023-09-19T00:25:20;4.63;;;4.13;;
75061;SDS011;63641;46.526;24.612;2023-09-19T00:27:47;4.28;;;3.88;;
75061;SDS011;63641;46.526;24.612;2023-09-19T00:30:16;4.20;;;3.80;;
75061;SDS011;63641;46.526;24.612;2023-09-19T00:32:47;4.50;;;4.10;;
75061;SDS011;63641;46.526;24.612;2023-09-19T00:35:15;5.85;;;4.45;;
75061;SDS011;63641;46.526;24.612;2023-09-19T00:37:42;4.28;;;3.88;;
75061;SDS011;63641;46.526;24.612;2023-09-19T00:40:10;4.50;;;4.10;;
75061;SDS011;63641;46.526;24.612;2023-09-19T00:42:42;4.63;;;4.22;;
75061;SDS011;63641;46.526;24.612;2023-09-19T00:45:10;4.40;;;4.00;;
75061;SDS011;63641;46.526;24.612;2023-09-19T00:47:46;4.85;;;4.40;;
75061;SDS011;63641;46.526;24.612;2023-09-19T00:50:20;7.43;;;4.00;;
75061;SDS011;63641;46.526;24.612;2023-09-19T00:52:50;4.95;;;4.45;;
75061;SDS011;63641;46.526;24.612;2023-09-19T00:55:19;4.68;;;4.03;;
75061;SDS011;63641;46.526;24.612;2023-09-19T00:57:46;5.28;;;4.38;;
75061;SDS011;63641;46.526;24.612;2023-09-19T01:00:16;4.72;;;4.32;;
75061;SDS011;63641;46.526;24.612;2023-09-19T01:02:46;4.72;;;4.25;;
75061;SDS011;63641;46.526;24.612;2023-09-19T01:05:13;4.60;;;4.20;;
75061;SDS011;63641;46.526;24.612;2023-09-19T01:07:41;4.55;;;4.15;;
75061;SDS011;63641;46.526;24.612;2023-09-19T01:10:08;4.32;;;3.97;;
75061;SDS011;63641;46.526;24.612;2023-09-19T01:15:12;5.05;;;4.55;;
75061;SDS011;63641;46.526;24.612;2023-09-19T01:17:57;5.20;;;4.70;;
75061;SDS011;63641;46.526;24.612;2023-09-19T01:23:13;4.80;;;4.32;;
75061;SDS011;63641;46.526;24.612;2023-09-19T01:28:53;5.00;;;4.10;;
75061;SDS011;63641;46.526;24.612;2023-09-19T01:31:39;4.80;;;4.38;;
75061;SDS011;63641;46.526;24.612;2023-09-19T01:34:09;4.80;;;4.40;;
75061;SDS011;63641;46.526;24.612;2023-09-19T01:36:36;5.07;;;4.57;;
75061;SDS011;63641;46.526;24.612;2023-09-19T01:39:05;5.10;;;4.30;;
75061;SDS011;63641;46.526;24.612;2023-09-19T01:44:09;4.63;;;4.22;;
75061;SDS011;63641;46.526;24.612;2023-09-19T01:46:39;5.35;;;4.45;;
75061;SDS011;63641;46.526;24.612;2023-09-19T01:52:05;5.40;;;4.57;;
75061;SDS011;63641;46.526;24.612;2023-09-19T01:54:41;4.65;;;4.15;;
75061;SDS011;63641;46.526;24.612;2023-09-19T01:59:54;4.90;;;4.45;;
75061;SDS011;63641;46.526;24.612;2023-09-19T02:02:27;4.90;;;4.47;;
75061;SDS011;63641;46.526;24.612;2023-09-19T02:04:56;5.18;;;4.30;;
75061;SDS011;63641;46.526;24.612;2023-09-19T02:07:22;4.60;;;4.20;;
75061;SDS011;63641;46.526;24.612;2023-09-19T02:09:49;4.63;;;4.18;;
75061;SDS011;63641;46.526;24.612;2023-09-19T02:12:16;5.20;;;4.70;;
75061;SDS011;63641;46.526;24.612;2023-09-19T02:14:43;5.25;;;4.82;;
75061;SDS011;63641;46.526;24.612;2023-09-19T02:17:09;4.95;;;4.38;;
75061;SDS011;63641;46.526;24.612;2023-09-19T02:19:38;4.95;;;4.10;;
75061;SDS011;63641;46.526;24.612;2023-09-19T02:22:05;6.38;;;4.57;;
75061;SDS011;63641;46.526;24.612;2023-09-19T02:24:34;4.95;;;4.45;;
75061;SDS011;63641;46.526;24.612;2023-09-19T02:27:01;5.50;;;5.00;;
75061;SDS011;63641;46.526;24.612;2023-09-19T02:29:31;4.95;;;4.45;;
75061;SDS011;63641;46.526;24.612;2023-09-19T02:31:58;4.82;;;4.43;;
75061;SDS011;63641;46.526;24.612;2023-09-19T02:34:25;4.93;;;4.43;;
75061;SDS011;63641;46.526;24.612;2023-09-19T02:36:51;5.18;;;4.68;;
75061;SDS011;63641;46.526;24.612;2023-09-19T02:39:21;5.03;;;4.55;;
75061;SDS011;63641;46.526;24.612;2023-09-19T02:41:48;4.97;;;4.30;;
75061;SDS011;63641;46.526;24.612;2023-09-19T02:44:15;5.07;;;4.57;;
75061;SDS011;63641;46.526;24.612;2023-09-19T02:46:41;5.22;;;4.72;;
75061;SDS011;63641;46.526;24.612;2023-09-19T02:49:08;5.30;;;4.80;;
75061;SDS011;63641;46.526;24.612;2023-09-19T02:51:35;5.00;;;4.60;;
75061;SDS011;63641;46.526;24.612;2023-09-19T02:54:02;7.55;;;4.72;;
75061;SDS011;63641;46.526;24.612;2023-09-19T02:56:29;5.88;;;4.30;;
75061;SDS011;63641;46.526;24.612;2023-09-19T02:58:58;4.72;;;4.28;;
75061;SDS011;63641;46.526;24.612;2023-09-19T03:01:27;4.70;;;4.30;;
75061;SDS011;63641;46.526;24.612;2023-09-19T03:03:57;4.82;;;4.20;;
75061;SDS011;63641;46.526;24.612;2023-09-19T03:06:24;4.80;;;4.38;;
75061;SDS011;63641;46.526;24.612;2023-09-19T03:08:53;5.03;;;4.15;;
75061;SDS011;63641;46.526;24.612;2023-09-19T03:11:22;4.95;;;4.40;;
75061;SDS011;63641;46.526;24.612;2023-09-19T03:13:52;4.45;;;3.85;;
75061;SDS011;63641;46.526;24.612;2023-09-19T03:16:20;4.43;;;3.85;;
75061;SDS011;63641;46.526;24.612;2023-09-19T03:18:51;5.53;;;4.20;;
75061;SDS011;63641;46.526;24.612;2023-09-19T03:21:18;4.50;;;4.10;;
75061;SDS011;63641;46.526;24.612;2023-09-19T03:23:45;5.10;;;4.35;;
75061;SDS011;63641;46.526;24.612;2023-09-19T03:26:12;4.63;;;4.22;;
75061;SDS011;63641;46.526;24.612;2023-09-19T03:28:42;4.95;;;4.55;;
75061;SDS011;63641;46.526;24.612;2023-09-19T03:31:09;4.53;;;4.13;;
75061;SDS011;63641;46.526;24.612;2023-09-19T03:33:37;4.90;;;4.10;;
75061;SDS011;63641;46.526;24.612;2023-09-19T03:36:04;5.70;;;4.30;;
75061;SDS011;63641;46.526;24.612;2023-09-19T03:38:32;5.20;;;4.15;;
75061;SDS011;63641;46.526;24.612;2023-09-19T03:41:01;5.47;;;4.97;;
75061;SDS011;63641;46.526;24.612;2023-09-19T03:43:28;4.45;;;4.05;;
75061;SDS011;63641;46.526;24.612;2023-09-19T03:45:55;4.53;;;4.13;;
75061;SDS011;63641;46.526;24.612;2023-09-19T03:48:22;5.68;;;4.53;;
75061;SDS011;63641;46.526;24.612;2023-09-19T03:50:49;4.50;;;4.10;;
75061;SDS011;63641;46.526;24.612;2023-09-19T03:53:16;5.03;;;4.47;;
75061;SDS011;63641;46.526;24.612;2023-09-19T03:55:44;4.85;;;4.45;;
75061;SDS011;63641;46.526;24.612;2023-09-19T03:58:12;4.80;;;4.35;;
75061;SDS011;63641;46.526;24.612;2023-09-19T04:00:39;4.97;;;4.47;;
75061;SDS011;63641;46.526;24.612;2023-09-19T04:03:07;5.40;;;4.20;;
75061;SDS011;63641;46.526;24.612;2023-09-19T04:05:34;5.88;;;4.57;;
75061;SDS011;63641;46.526;24.612;2023-09-19T04:08:01;6.45;;;4.32;;
75061;SDS011;63641;46.526;24.612;2023-09-19T04:10:27;5.15;;;4.28;;
75061;SDS011;63641;46.526;24.612;2023-09-19T04:12:55;6.43;;;4.20;;
75061;SDS011;63641;46.526;24.612;2023-09-19T04:15:23;4.80;;;4.30;;
75061;SDS011;63641;46.526;24.612;2023-09-19T04:17:50;5.70;;;4.80;;
75061;SDS011;63641;46.526;24.612;2023-09-19T04:20:18;6.15;;;4.93;;
75061;SDS011;63641;46.526;24.612;2023-09-19T04:22:51;4.75;;;4.35;;
75061;SDS011;63641;46.526;24.612;2023-09-19T04:25:18;5.65;;;4.40;;
75061;SDS011;63641;46.526;24.612;2023-09-19T04:27:45;5.22;;;4.50;;
75061;SDS011;63641;46.526;24.612;2023-09-19T04:30:12;5.25;;;4.50;;
75061;SDS011;63641;46.526;24.612;2023-09-19T04:32:41;4.72;;;4.32;;
75061;SDS011;63641;46.526;24.612;2023-09-19T04:35:08;5.78;;;4.53;;
75061;SDS011;63641;46.526;24.612;2023-09-19T04:37:39;4.80;;;4.03;;
75061;SDS011;63641;46.526;24.612;2023-09-19T04:40:08;6.03;;;4.57;;
75061;SDS011;63641;46.526;24.612;2023-09-19T04:42:42;6.45;;;4.47;;
75061;SDS011;63641;46.526;24.612;2023-09-19T04:45:09;5.18;;;4.68;;
75061;SDS011;63641;46.526;24.612;2023-09-19T04:47:37;5.72;;;4.45;;
75061;SDS011;63641;46.526;24.612;2023-09-19T04:50:09;4.97;;;4.18;;
75061;SDS011;63641;46.526;24.612;2023-09-19T04:52:41;5.60;;;4.43;;
75061;SDS011;63641;46.526;24.612;2023-09-19T04:55:12;4.50;;;4.10;;
75061;SDS011;63641;46.526;24.612;2023-09-19T04:57:43;6.50;;;4.53;;
75061;SDS011;63641;46.526;24.612;2023-09-19T05:00:12;5.63;;;4.25;;
75061;SDS011;63641;46.526;24.612;2023-09-19T05:02:46;4.63;;;4.00;;
75061;SDS011;63641;46.526;24.612;2023-09-19T05:05:15;5.00;;;4.55;;
75061;SDS011;63641;46.526;24.612;2023-09-19T05:07:43;5.28;;;4.30;;
75061;SDS011;63641;46.526;24.612;2023-09-19T05:10:11;5.22;;;4.38;;
75061;SDS011;63641;46.526;24.612;2023-09-19T05:12:39;6.07;;;4.90;;
75061;SDS011;63641;46.526;24.612;2023-09-19T05:15:06;4.80;;;4.40;;
75061;SDS011;63641;46.526;24.612;2023-09-19T05:17:34;4.82;;;4.43;;
75061;SDS011;63641;46.526;24.612;2023-09-19T05:20:03;6.75;;;5.00;;
75061;SDS011;63641;46.526;24.612;2023-09-19T05:22:57;5.03;;;4.57;;
75061;SDS011;63641;46.526;24.612;2023-09-19T05:25:29;5.95;;;4.30;;
75061;SDS011;63641;46.526;24.612;2023-09-19T05:27:58;5.60;;;4.38;;
75061;SDS011;63641;46.526;24.612;2023-09-19T05:30:25;10.43;;;4.75;;
75061;SDS011;63641;46.526;24.612;2023-09-19T05:32:55;10.35;;;5.13;;
75061;SDS011;63641;46.526;24.612;2023-09-19T05:35:23;6.78;;;5.38;;
75061;SDS011;63641;46.526;24.612;2023-09-19T05:37:50;8.07;;;4.57;;
75061;SDS011;63641;46.526;24.612;2023-09-19T05:40:18;7.60;;;4.80;;
75061;SDS011;63641;46.526;24.612;2023-09-19T05:42:46;9.43;;;5.10;;
75061;SDS011;63641;46.526;24.612;2023-09-19T05:45:13;8.05;;;5.10;;
75061;SDS011;63641;46.526;24.612;2023-09-19T05:47:40;8.98;;;5.03;;
75061;SDS011;63641;46.526;24.612;2023-09-19T05:50:12;5.35;;;4.70;;
75061;SDS011;63641;46.526;24.612;2023-09-19T05:52:39;8.05;;;5.03;;
75061;SDS011;63641;46.526;24.612;2023-09-19T05:55:07;6.82;;;4.68;;
75061;SDS011;63641;46.526;24.612;2023-09-19T05:57:34;10.18;;;4.82;;
75061;SDS011;63641;46.526;24.612;2023-09-19T06:00:01;7.35;;;4.78;;
75061;SDS011;63641;46.526;24.612;2023-09-19T06:02:30;8.13;;;4.70;;
75061;SDS011;63641;46.526;24.612;2023-09-19T06:04:59;4.80;;;4.32;;
75061;SDS011;63641;46.526;24.612;2023-09-19T06:07:26;6.40;;;5.32;;
75061;SDS011;63641;46.526;24.612;2023-09-19T06:09:55;5.22;;;4.38;;
75061;SDS011;63641;46.526;24.612;2023-09-19T06:12:22;6.95;;;4.05;;
75061;SDS011;63641;46.526;24.612;2023-09-19T06:14:49;4.60;;;4.20;;
75061;SDS011;63641;46.526;24.612;2023-09-19T06:17:16;4.93;;;4.47;;
75061;SDS011;63641;46.526;24.612;2023-09-19T06:19:43;5.13;;;4.63;;
75061;SDS011;63641;46.526;24.612;2023-09-19T06:22:15;5.28;;;4.10;;
75061;SDS011;63641;46.526;24.612;2023-09-19T06:24:45;4.97;;;4.18;;
75061;SDS011;63641;46.526;24.612;2023-09-19T06:27:13;4.60;;;4.20;;
75061;SDS011;63641;46.526;24.612;2023-09-19T06:29:40;4.85;;;4.00;;
75061;SDS011;63641;46.526;24.612;2023-09-19T06:32:10;5.70;;;4.10;;
75061;SDS011;63641;46.526;24.612;2023-09-19T06:34:37;4.75;;;4.35;;
75061;SDS011;63641;46.526;24.612;2023-09-19T06:37:05;4.50;;;4.10;;
75061;SDS011;63641;46.526;24.612;2023-09-19T06:39:32;4.65;;;4.15;;
75061;SDS011;63641;46.526;24.612;2023-09-19T06:41:59;5.68;;;4.50;;
75061;SDS011;63641;46.526;24.612;2023-09-19T06:44:28;4.38;;;3.97;;
75061;SDS011;63641;46.526;24.612;2023-09-19T06:46:56;5.53;;;4.30;;
75061;SDS011;63641;46.526;24.612;2023-09-19T06:49:22;4.90;;;4.38;;
75061;SDS011;63641;46.526;24.612;2023-09-19T06:51:49;5.38;;;4.88;;
75061;SDS011;63641;46.526;24.612;2023-09-19T06:54:16;5.28;;;4.80;;
75061;SDS011;63641;46.526;24.612;2023-09-19T06:56:44;4.43;;;3.92;;
75061;SDS011;63641;46.526;24.612;2023-09-19T06:59:10;4.43;;;4.03;;
75061;SDS011;63641;46.526;24.612;2023-09-19T07:01:40;4.50;;;4.10;;
75061;SDS011;63641;46.526;24.612;2023-09-19T07:04:08;4.53;;;4.00;;
75061;SDS011;63641;46.526;24.612;2023-09-19T07:06:35;5.28;;;4.57;;
75061;SDS011;63641;46.526;24.612;2023-09-19T07:09:02;7.85;;;4.68;;
75061;SDS011;63641;46.526;24.612;2023-09-19T07:11:29;5.38;;;4.53;;
75061;SDS011;63641;46.526;24.612;2023-09-19T07:13:57;6.30;;;5.22;;
75061;SDS011;63641;46.526;24.612;2023-09-19T07:16:24;8.15;;;6.00;;
75061;SDS011;63641;46.526;24.612;2023-09-19T07:18:55;13.10;;;7.10;;
75061;SDS011;63641;46.526;24.612;2023-09-19T07:21:23;8.30;;;6.85;;
75061;SDS011;63641;46.526;24.612;2023-09-19T07:23:50;10.23;;;6.10;;
75061;SDS011;63641;46.526;24.612;2023-09-19T07:26:18;11.85;;;7.40;;
75061;SDS011;63641;46.526;24.612;2023-09-19T07:28:45;12.70;;;7.13;;
75061;SDS011;63641;46.526;24.612;2023-09-19T07:31:12;8.38;;;5.75;;
75061;SDS011;63641;46.526;24.612;2023-09-19T07:33:40;10.82;;;6.47;;
75061;SDS011;63641;46.526;24.612;2023-09-19T07:36:09;8.30;;;5.95;;
75061;SDS011;63641;46.526;24.612;2023-09-19T07:38:37;10.35;;;6.80;;
75061;SDS011;63641;46.526;24.612;2023-09-19T07:41:04;9.68;;;7.50;;
75061;SDS011;63641;46.526;24.612;2023-09-19T07:43:31;12.38;;;8.45;;
75061;SDS011;63641;46.526;24.612;2023-09-19T07:46:03;9.00;;;6.90;;
75061;SDS011;63641;46.526;24.612;2023-09-19T07:48:33;7.40;;;6.57;;
75061;SDS011;63641;46.526;24.612;2023-09-19T07:51:02;6.82;;;5.40;;
75061;SDS011;63641;46.526;24.612;2023-09-19T07:53:30;5.32;;;4.70;;
75061;SDS011;63641;46.526;24.612;2023-09-19T07:56:06;7.57;;;5.22;;
75061;SDS011;63641;46.526;24.612;2023-09-19T07:58:35;4.78;;;4.35;;
75061;SDS011;63641;46.526;24.612;2023-09-19T08:01:04;6.20;;;4.45;;
75061;SDS011;63641;46.526;24.612;2023-09-19T08:03:31;4.97;;;4.47;;
75061;SDS011;63641;46.526;24.612;2023-09-19T08:05:58;8.85;;;4.35;;
75061;SDS011;63641;46.526;24.612;2023-09-19T08:08:27;4.63;;;3.95;;
75061;SDS011;63641;46.526;24.612;2023-09-19T08:10:54;13.93;;;4.47;;
75061;SDS011;63641;46.526;24.612;2023-09-19T08:13:25;7.28;;;4.10;;
75061;SDS011;63641;46.526;24.612;2023-09-19T08:15:52;4.28;;;3.88;;
75061;SDS011;63641;46.526;24.612;2023-09-19T08:18:19;5.32;;;3.60;;
75061;SDS011;63641;46.526;24.612;2023-09-19T08:20:50;5.40;;;3.67;;
75061;SDS011;63641;46.526;24.612;2023-09-19T08:23:17;4.88;;;4.07;;
75061;SDS011;63641;46.526;24.612;2023-09-19T08:25:46;5.95;;;3.70;;
75061;SDS011;63641;46.526;24.612;2023-09-19T08:28:14;3.95;;;3.65;;
75061;SDS011;63641;46.526;24.612;2023-09-19T08:30:45;4.45;;;3.85;;
75061;SDS011;63641;46.526;24.612;2023-09-19T08:33:12;4.85;;;3.67;;
75061;SDS011;63641;46.526;24.612;2023-09-19T08:35:41;4.82;;;4.03;;
75061;SDS011;63641;46.526;24.612;2023-09-19T08:38:09;7.50;;;4.85;;
75061;SDS011;63641;46.526;24.612;2023-09-19T08:40:40;5.97;;;4.18;;
75061;SDS011;63641;46.526;24.612;2023-09-19T08:43:08;6.65;;;4.30;;
75061;SDS011;63641;46.526;24.612;2023-09-19T08:45:35;8.68;;;4.10;;
75061;SDS011;63641;46.526;24.612;2023-09-19T08:50:52;4.60;;;4.10;;
75061;SDS011;63641;46.526;24.612;2023-09-19T08:56:06;8.15;;;5.05;;
75061;SDS011;63641;46.526;24.612;2023-09-19T08:58:46;6.35;;;4.65;;
75061;SDS011;63641;46.526;24.612;2023-09-19T09:01:17;5.63;;;4.82;;
75061;SDS011;63641;46.526;24.612;2023-09-19T09:03:52;6.25;;;5.25;;
75061;SDS011;63641;46.526;24.612;2023-09-19T09:06:23;5.25;;;4.70;;
75061;SDS011;63641;46.526;24.612;2023-09-19T09:08:51;5.45;;;4.22;;
75061;SDS011;63641;46.526;24.612;2023-09-19T09:11:19;7.40;;;4.00;;
75061;SDS011;63641;46.526;24.612;2023-09-19T09:13:47;3.95;;;3.65;;
75061;SDS011;63641;46.526;24.612;2023-09-19T09:16:14;6.85;;;4.03;;
75061;SDS011;63641;46.526;24.612;2023-09-19T09:18:46;4.60;;;4.10;;
75061;SDS011;63641;46.526;24.612;2023-09-19T09:21:24;5.43;;;4.20;;
75061;SDS011;63641;46.526;24.612;2023-09-19T09:23:51;6.68;;;4.13;;
75061;SDS011;63641;46.526;24.612;2023-09-19T09:29:05;6.57;;;4.10;;
75061;SDS011;63641;46.526;24.612;2023-09-19T09:31:32;5.10;;;3.97;;
75061;SDS011;63641;46.526;24.612;2023-09-19T09:33:59;4.90;;;4.00;;
75061;SDS011;63641;46.526;24.612;2023-09-19T09:36:35;5.00;;;4.57;;
75061;SDS011;63641;46.526;24.612;2023-09-19T09:39:04;4.90;;;4.47;;
75061;SDS011;63641;46.526;24.612;2023-09-19T09:41:51;5.45;;;3.80;;
75061;SDS011;63641;46.526;24.612;2023-09-19T09:44:18;11.07;;;4.75;;
75061;SDS011;63641;46.526;24.612;2023-09-19T09:46:46;6.20;;;4.25;;
75061;SDS011;63641;46.526;24.612;2023-09-19T09:49:24;4.88;;;4.38;;
75061;SDS011;63641;46.526;24.612;2023-09-19T09:54:37;5.35;;;4.07;;
75061;SDS011;63641;46.526;24.612;2023-09-19T09:57:07;6.15;;;4.65;;
75061;SDS011;63641;46.526;24.612;2023-09-19T10:02:17;6.13;;;3.80;;
75061;SDS011;63641;46.526;24.612;2023-09-19T10:04:52;4.97;;;4.25;;
75061;SDS011;63641;46.526;24.612;2023-09-19T10:07:26;5.82;;;4.28;;
75061;SDS011;63641;46.526;24.612;2023-09-19T10:09:59;4.90;;;4.40;;
75061;SDS011;63641;46.526;24.612;2023-09-19T10:12:38;4.63;;;4.13;;
75061;SDS011;63641;46.526;24.612;2023-09-19T10:15:15;11.57;;;4.72;;
75061;SDS011;63641;46.526;24.612;2023-09-19T10:17:44;5.68;;;4.63;;
75061;SDS011;63641;46.526;24.612;2023-09-19T10:20:13;5.72;;;4.45;;
75061;SDS011;63641;46.526;24.612;2023-09-19T10:23:08;5.10;;;4.60;;
75061;SDS011;63641;46.526;24.612;2023-09-19T10:25:37;5.75;;;5.07;;
75061;SDS011;63641;46.526;24.612;2023-09-19T10:28:06;6.68;;;6.07;;
75061;SDS011;63641;46.526;24.612;2023-09-19T10:30:45;5.40;;;4.90;;
75061;SDS011;63641;46.526;24.612;2023-09-19T10:33:15;5.97;;;5.30;;
75061;SDS011;63641;46.526;24.612;2023-09-19T10:35:44;9.80;;;5.97;;
75061;SDS011;63641;46.526;24.612;2023-09-19T10:38:14;9.40;;;5.43;;
75061;SDS011;63641;46.526;24.612;2023-09-19T10:40:48;7.18;;;5.05;;
75061;SDS011;63641;46.526;24.612;2023-09-19T10:43:17;6.78;;;5.53;;
75061;SDS011;63641;46.526;24.612;2023-09-19T10:45:45;6.05;;;5.50;;
75061;SDS011;63641;46.526;24.612;2023-09-19T10:48:16;5.50;;;5.00;;
75061;SDS011;63641;46.526;24.612;2023-09-19T10:51:02;6.18;;;5.10;;
75061;SDS011;63641;46.526;24.612;2023-09-19T10:53:50;5.45;;;4.80;;
75061;SDS011;63641;46.526;24.612;2023-09-19T10:56:24;9.02;;;5.90;;
75061;SDS011;63641;46.526;24.612;2023-09-19T10:59:08;7.15;;;5.93;;
75061;SDS011;63641;46.526;24.612;2023-09-19T11:01:41;10.45;;;6.20;;
75061;SDS011;63641;46.526;24.612;2023-09-19T11:07:08;7.03;;;6.35;;
75061;SDS011;63641;46.526;24.612;2023-09-19T11:16:02;6.20;;;5.60;;
75061;SDS011;63641;46.526;24.612;2023-09-19T11:26:49;7.40;;;6.50;;
75061;SDS011;63641;46.526;24.612;2023-09-19T11:31:52;6.70;;;6.05;;
75061;SDS011;63641;46.526;24.612;2023-09-19T11:42:54;7.63;;;6.35;;
75061;SDS011;63641;46.526;24.612;2023-09-19T11:48:13;7.57;;;6.72;;
75061;SDS011;63641;46.526;24.612;2023-09-19T11:50:42;6.97;;;6.10;;
75061;SDS011;63641;46.526;24.612;2023-09-19T11:53:11;7.65;;;6.82;;
75061;SDS011;63641;46.526;24.612;2023-09-19T11:55:38;7.65;;;6.85;;
75061;SDS011;63641;46.526;24.612;2023-09-19T11:58:07;6.75;;;6.10;;
75061;SDS011;63641;46.526;24.612;2023-09-19T12:00:37;7.40;;;6.30;;
75061;SDS011;63641;46.526;24.612;2023-09-19T12:03:08;8.27;;;6.80;;
75061;SDS011;63641;46.526;24.612;2023-09-19T12:05:40;6.75;;;6.15;;
75061;SDS011;63641;46.526;24.612;2023-09-19T12:08:07;7.35;;;6.63;;
75061;SDS011;63641;46.526;24.612;2023-09-19T12:10:47;8.48;;;7.10;;
75061;SDS011;63641;46.526;24.612;2023-09-19T12:13:16;8.32;;;7.53;;
75061;SDS011;63641;46.526;24.612;2023-09-19T12:15:44;7.93;;;7.22;;
75061;SDS011;63641;46.526;24.612;2023-09-19T12:18:27;7.70;;;7.03;;
75061;SDS011;63641;46.526;24.612;2023-09-19T12:20:55;8.40;;;6.70;;
75061;SDS011;63641;46.526;24.612;2023-09-19T12:23:22;7.53;;;6.82;;
75061;SDS011;63641;46.526;24.612;2023-09-19T12:25:49;8.15;;;7.45;;
75061;SDS011;63641;46.526;24.612;2023-09-19T12:28:20;7.90;;;7.10;;
75061;SDS011;63641;46.526;24.612;2023-09-19T12:30:48;8.02;;;7.22;;
75061;SDS011;63641;46.526;24.612;2023-09-19T12:33:16;8.00;;;7.22;;
75061;SDS011;63641;46.526;24.612;2023-09-19T12:35:47;8.30;;;7.60;;
75061;SDS011;63641;46.526;24.612;2023-09-19T12:38:24;8.77;;;7.88;;
75061;SDS011;63641;46.526;24.612;2023-09-19T12:41:03;8.05;;;7.25;;
75061;SDS011;63641;46.526;24.612;2023-09-19T12:43:30;8.27;;;7.30;;
75061;SDS011;63641;46.526;24.612;2023-09-19T12:45:59;7.15;;;6.45;;
75061;SDS011;63641;46.526;24.612;2023-09-19T12:48:27;7.53;;;6.82;;
75061;SDS011;63641;46.526;24.612;2023-09-19T12:53:43;7.50;;;6.80;;
75061;SDS011;63641;46.526;24.612;2023-09-19T12:56:13;7.90;;;6.65;;
75061;SDS011;63641;46.526;24.612;2023-09-19T12:58:52;7.32;;;6.72;;
75061;SDS011;63641;46.526;24.612;2023-09-19T13:01:23;7.53;;;6.18;;
75061;SDS011;63641;46.526;24.612;2023-09-19T13:06:48;6.72;;;5.93;;
75061;SDS011;63641;46.526;24.612;2023-09-19T13:09:19;7.97;;;6.53;;
75061;SDS011;63641;46.526;24.612;2023-09-19T13:11:47;6.57;;;6.03;;
75061;SDS011;63641;46.526;24.612;2023-09-19T13:14:21;6.50;;;5.90;;
75061;SDS011;63641;46.526;24.612;2023-09-19T13:17:05;6.85;;;6.22;;
75061;SDS011;63641;46.526;24.612;2023-09-19T13:19:49;6.20;;;5.60;;
75061;SDS011;63641;46.526;24.612;2023-09-19T13:22:36;6.40;;;5.75;;
75061;SDS011;63641;46.526;24.612;2023-09-19T13:25:16;6.28;;;5.68;;
75061;SDS011;63641;46.526;24.612;2023-09-19T13:27:47;6.28;;;5.68;;
75061;SDS011;63641;46.526;24.612;2023-09-19T13:30:18;6.55;;;5.80;;
75061;SDS011;63641;46.526;24.612;2023-09-19T13:32:45;5.72;;;5.22;;
75061;SDS011;63641;46.526;24.612;2023-09-19T13:35:14;6.07;;;5.50;;
75061;SDS011;63641;46.526;24.612;2023-09-19T13:37:41;7.63;;;5.70;;
75061;SDS011;63641;46.526;24.612;2023-09-19T13:40:11;7.57;;;5.43;;
75061;SDS011;63641;46.526;24.612;2023-09-19T13:42:39;6.15;;;5.20;;
75061;SDS011;63641;46.526;24.612;2023-09-19T13:45:07;6.65;;;5.25;;
75061;SDS011;63641;46.526;24.612;2023-09-19T13:47:39;8.20;;;5.00;;
75061;SDS011;63641;46.526;24.612;2023-09-19T13:50:07;7.65;;;4.90;;
75061;SDS011;63641;46.526;24.612;2023-09-19T13:52:35;8.05;;;5.45;;
75061;SDS011;63641;46.526;24.612;2023-09-19T13:55:02;6.53;;;5.15;;
75061;SDS011;63641;46.526;24.612;2023-09-19T13:57:29;6.78;;;4.90;;
75061;SDS011;63641;46.526;24.612;2023-09-19T13:59:56;5.70;;;5.10;;
75061;SDS011;63641;46.526;24.612;2023-09-19T14:02:23;6.35;;;5.32;;
75061;SDS011;63641;46.526;24.612;2023-09-19T14:04:51;5.82;;;4.93;;
75061;SDS011;63641;46.526;24.612;2023-09-19T14:07:19;5.57;;;5.03;;
75061;SDS011;63641;46.526;24.612;2023-09-19T14:09:47;5.88;;;5.22;;
75061;SDS011;63641;46.526;24.612;2023-09-19T14:12:14;5.25;;;4.75;;
75061;SDS011;63641;46.526;24.612;2023-09-19T14:14:42;7.18;;;5.20;;
75061;SDS011;63641;46.526;24.612;2023-09-19T14:17:09;5.65;;;5.03;;
75061;SDS011;63641;46.526;24.612;2023-09-19T14:19:36;7.40;;;5.70;;
75061;SDS011;63641;46.526;24.612;2023-09-19T14:22:03;5.88;;;4.97;;
75061;SDS011;63641;46.526;24.612;2023-09-19T14:24:34;7.38;;;5.10;;
75061;SDS011;63641;46.526;24.612;2023-09-19T14:27:02;6.50;;;4.53;;
75061;SDS011;63641;46.526;24.612;2023-09-19T14:29:30;7.43;;;5.05;;
75061;SDS011;63641;46.526;24.612;2023-09-19T14:31:58;6.38;;;4.50;;
75061;SDS011;63641;46.526;24.612;2023-09-19T14:34:25;5.60;;;4.85;;
75061;SDS011;63641;46.526;24.612;2023-09-19T14:36:52;5.60;;;5.03;;
75061;SDS011;63641;46.526;24.612;2023-09-19T14:39:21;5.50;;;5.00;;
75061;SDS011;63641;46.526;24.612;2023-09-19T14:41:47;9.65;;;5.60;;
75061;SDS011;63641;46.526;24.612;2023-09-19T14:44:15;7.22;;;5.20;;
75061;SDS011;63641;46.526;24.612;2023-09-19T14:46:42;6.00;;;5.18;;
75061;SDS011;63641;46.526;24.612;2023-09-19T14:49:11;6.80;;;5.20;;
75061;SDS011;63641;46.526;24.612;2023-09-19T14:51:38;7.43;;;6.10;;
75061;SDS011;63641;46.526;24.612;2023-09-19T14:54:10;5.95;;;5.35;;
75061;SDS011;63641;46.526;24.612;2023-09-19T14:56:37;6.03;;;5.05;;
75061;SDS011;63641;46.526;24.612;2023-09-19T14:59:04;6.10;;;5.47;;
75061;SDS011;63641;46.526;24.612;2023-09-19T15:01:30;6.80;;;4.97;;
75061;SDS011;63641;46.526;24.612;2023-09-19T15:03:59;6.20;;;5.47;;
75061;SDS011;63641;46.526;24.612;2023-09-19T15:06:28;7.88;;;5.55;;
75061;SDS011;63641;46.526;24.612;2023-09-19T15:08:55;6.32;;;5.30;;
75061;SDS011;63641;46.526;24.612;2023-09-19T15:11:21;6.55;;;4.72;;
75061;SDS011;63641;46.526;24.612;2023-09-19T15:13:51;7.90;;;5.10;;
75061;SDS011;63641;46.526;24.612;2023-09-19T15:16:20;5.50;;;5.00;;
75061;SDS011;63641;46.526;24.612;2023-09-19T15:18:46;7.18;;;5.43;;
75061;SDS011;63641;46.526;24.612;2023-09-19T15:21:18;6.13;;;5.55;;
75061;SDS011;63641;46.526;24.612;2023-09-19T15:23:45;6.28;;;5.32;;
75061;SDS011;63641;46.526;24.612;2023-09-19T15:26:13;6.10;;;5.50;;
75061;SDS011;63641;46.526;24.612;2023-09-19T15:28:53;8.23;;;5.50;;
75061;SDS011;63641;46.526;24.612;2023-09-19T15:31:20;6.82;;;5.30;;
75061;SDS011;63641;46.526;24.612;2023-09-19T15:33:47;5.75;;;5.00;;
75061;SDS011;63641;46.526;24.612;2023-09-19T15:36:15;7.53;;;5.30;;
75061;SDS011;63641;46.526;24.612;2023-09-19T15:41:30;6.07;;;5.38;;
75061;SDS011;63641;46.526;24.612;2023-09-19T15:43:58;7.53;;;4.80;;
75061;SDS011;63641;46.526;24.612;2023-09-19T15:46:28;5.88;;;5.25;;
75061;SDS011;63641;46.526;24.612;2023-09-19T15:48:56;7.50;;;5.20;;
75061;SDS011;63641;46.526;24.612;2023-09-19T15:51:23;7.00;;;5.05;;
75061;SDS011;63641;46.526;24.612;2023-09-19T15:53:51;7.95;;;5.07;;
75061;SDS011;63641;46.526;24.612;2023-09-19T15:56:20;7.50;;;5.28;;